Time;durP1;ratioP1;P1;durP2;ratioP2;P2;SDS_P1;SDS_P2;PMS_P1;PMS_P2;Temp;Humidity;BMP_temperature;BMP_pressure;BME280_temperature;BME280_humidity;BME280_pressure;Samples;Min_cycle;Max_cycle;Signal;HPM_P1;HPM_P2
2022/05/24 00:01:16;;;;;;;2.90;1.57;;;18.10;97.90;;;;;;5057428;28;20453;-45
2022/05/24 00:03:41;;;;;;;4.93;1.97;;;18.10;97.80;;;;;;5057157;28;20195;-45
2022/05/24 00:06:07;;;;;;;2.53;2.20;;;18.20;97.80;;;;;;5057264;28;20475;-45
2022/05/24 00:08:33;;;;;;;3.33;1.40;;;18.20;97.80;;;;;;5039630;28;20267;-45
2022/05/24 00:10:59;;;;;;;3.27;1.57;;;18.30;97.70;;;;;;5057142;28;20185;-45
2022/05/24 00:13:24;;;;;;;1.23;1.13;;;18.30;97.50;;;;;;5057291;28;20417;-45
2022/05/24 00:15:50;;;;;;;2.20;1.10;;;18.30;97.50;;;;;;5055938;28;20191;-45
2022/05/24 00:18:27;;;;;;;1.90;1.20;;;18.20;97.60;;;;;;5039591;28;20515;-45
2022/05/24 00:20:56;;;;;;;1.20;0.90;;;18.20;97.70;;;;;;5057132;28;20180;-45
2022/05/24 00:23:24;;;;;;;2.60;1.00;;;18.10;97.80;;;;;;5056380;28;20856;-45
2022/05/24 00:25:54;;;;;;;1.30;0.83;;;18.00;97.90;;;;;;5056283;28;20441;-45
2022/05/24 00:28:22;;;;;;;1.40;1.00;;;18.00;98.10;;;;;;5039672;28;20502;-45
2022/05/24 00:30:49;;;;;;;1.53;1.00;;;17.90;98.00;;;;;;5057554;28;20423;-45
2022/05/24 00:33:15;;;;;;;1.50;0.77;;;17.90;98.10;;;;;;5057287;28;20497;-45
2022/05/24 00:35:41;;;;;;;1.03;0.73;;;17.80;98.10;;;;;;5057344;28;20457;-45
2022/05/24 00:38:10;;;;;;;3.37;0.60;;;17.80;98.10;;;;;;5057091;28;20545;-45
2022/05/24 00:40:55;;;;;;;1.43;0.60;;;17.80;98.10;;;;;;5056749;28;20695;-45
2022/05/24 00:43:46;;;;;;;1.00;0.70;;;17.80;98.00;;;;;;5039029;28;20432;-45
2022/05/24 00:46:24;;;;;;;1.57;0.70;;;17.70;98.10;;;;;;5039652;28;20425;-45
2022/05/24 00:49:06;;;;;;;1.10;0.60;;;17.70;98.20;;;;;;5055773;28;20764;-45
2022/05/24 00:51:47;;;;;;;1.10;0.60;;;17.70;98.30;;;;;;5054265;28;20425;-45
2022/05/24 00:54:12;;;;;;;1.00;0.67;;;17.70;98.40;;;;;;5054519;28;20425;-45
2022/05/24 00:56:53;;;;;;;1.37;0.53;;;17.60;98.50;;;;;;5055435;28;20557;-45
2022/05/24 00:59:38;;;;;;;1.50;0.50;;;17.70;98.70;;;;;;5059448;28;20208;-45
2022/05/24 01:02:04;;;;;;;0.90;0.50;;;17.70;98.70;;;;;;5058435;28;20471;-45
2022/05/24 01:04:30;;;;;;;1.20;0.60;;;17.60;98.70;;;;;;5059729;28;20405;-45
2022/05/24 01:06:56;;;;;;;0.90;0.50;;;17.60;98.70;;;;;;5060667;28;20699;-46
2022/05/24 01:09:45;;;;;;;1.20;0.70;;;17.60;98.80;;;;;;5060212;28;20202;-45
2022/05/24 01:12:17;;;;;;;2.30;0.80;;;17.60;98.80;;;;;;5059841;28;20449;-45
2022/05/24 01:14:43;;;;;;;0.90;0.50;;;17.60;99.10;;;;;;5060511;28;20491;-45
2022/05/24 01:17:09;;;;;;;3.20;0.70;;;17.60;98.70;;;;;;5059696;28;20473;-45
2022/05/24 01:19:41;;;;;;;1.43;0.73;;;17.60;98.70;;;;;;5059747;28;20504;-45
2022/05/24 01:22:21;;;;;;;1.20;0.80;;;17.60;98.70;;;;;;5060219;28;20451;-45
2022/05/24 01:25:05;;;;;;;1.37;0.80;;;17.70;98.70;;;;;;5060496;28;20419;-45
2022/05/24 01:27:30;;;;;;;1.27;0.80;;;17.70;98.60;;;;;;5060563;28;20409;-45
2022/05/24 01:29:56;;;;;;;1.00;0.70;;;17.60;98.50;;;;;;5059032;28;20810;-45
2022/05/24 01:38:34;;;;;;;1.87;0.93;;;17.60;98.60;;;;;;5025276;28;20416;-46
2022/05/24 01:41:00;;;;;;;1.23;0.63;;;17.60;98.70;;;;;;5040093;28;20416;-45
2022/05/24 01:43:26;;;;;;;1.00;0.90;;;17.60;98.80;;;;;;5022901;28;20250;-45
2022/05/24 01:45:59;;;;;;;1.07;0.87;;;17.50;99.00;;;;;;5022877;28;20835;-45
2022/05/24 01:48:32;;;;;;;3.50;0.70;;;17.50;99.00;;;;;;5022377;28;20738;-45
2022/05/24 01:50:59;;;;;;;2.50;0.60;;;17.50;99.10;;;;;;5040015;28;20419;-46
2022/05/24 01:53:36;;;;;;;1.10;0.80;;;17.50;99.00;;;;;;5040333;28;20842;-45
2022/05/24 01:56:05;;;;;;;0.93;0.57;;;17.50;99.20;;;;;;5022782;28;20410;-44
2022/05/24 01:58:32;;;;;;;1.10;0.80;;;17.50;98.90;;;;;;5022127;28;20497;-45
2022/05/24 02:01:05;;;;;;;2.23;1.10;;;17.50;98.90;;;;;;5021958;28;20422;-45
2022/05/24 02:03:31;;;;;;;1.00;0.70;;;17.50;98.90;;;;;;5006017;28;20477;-46
2022/05/24 02:06:35;;;;;;;1.20;0.70;;;17.50;99.10;;;;;;5040006;28;20450;-46
2022/05/24 02:09:03;;;;;;;1.33;0.70;;;17.40;99.10;;;;;;4959473;28;20443;-45
2022/05/24 02:11:30;;;;;;;1.07;0.80;;;17.40;99.40;;;;;;4943512;29;20785;-45
2022/05/24 02:14:09;;;;;;;1.27;0.80;;;17.30;99.20;;;;;;4998893;28;20432;-45
2022/05/24 02:16:38;;;;;;;1.10;0.80;;;17.30;99.20;;;;;;5039673;28;20475;-45
2022/05/24 02:19:05;;;;;;;1.33;0.77;;;17.30;99.30;;;;;;5039219;28;20418;-45
2022/05/24 02:21:31;;;;;;;0.87;0.63;;;17.30;99.30;;;;;;5038021;28;20430;-45
2022/05/24 02:23:57;;;;;;;2.53;0.73;;;17.30;99.20;;;;;;5038705;28;20438;-45
2022/05/24 02:26:23;;;;;;;2.40;0.80;;;17.30;99.30;;;;;;5039523;28;20189;-46
2022/05/24 02:28:51;;;;;;;0.80;0.50;;;17.30;99.40;;;;;;5039602;28;20254;-45
2022/05/24 02:31:17;;;;;;;1.30;0.80;;;17.30;99.30;;;;;;5038281;28;20845;-45
2022/05/24 02:33:45;;;;;;;1.10;0.97;;;17.30;99.20;;;;;;5037900;28;20888;-46
2022/05/24 02:36:11;;;;;;;1.10;0.90;;;17.30;99.20;;;;;;5036842;28;20454;-45
2022/05/24 02:38:37;;;;;;;0.90;0.60;;;17.30;99.30;;;;;;5036353;28;20855;-45
2022/05/24 02:43:47;;;;;;;1.10;0.70;;;17.30;99.30;;;;;;5036193;28;20174;-45
2022/05/24 02:46:14;;;;;;;1.20;0.80;;;17.30;99.20;;;;;;5036086;28;20425;-45
2022/05/24 02:48:40;;;;;;;1.13;0.77;;;17.20;99.30;;;;;;5035122;28;20171;-45
2022/05/24 02:51:10;;;;;;;1.13;0.87;;;17.20;99.30;;;;;;5036675;28;20745;-45
2022/05/24 02:53:37;;;;;;;1.10;0.70;;;17.10;99.50;;;;;;5038676;28;20172;-45
2022/05/24 02:56:04;;;;;;;1.07;0.83;;;17.00;99.50;;;;;;5038286;28;20517;-45
2022/05/24 02:58:30;;;;;;;1.30;1.00;;;17.00;99.60;;;;;;5038872;28;20441;-45
2022/05/24 03:00:55;;;;;;;1.40;1.00;;;16.90;99.70;;;;;;5038036;28;20848;-46
2022/05/24 03:03:21;;;;;;;1.37;0.90;;;16.90;99.90;;;;;;5038809;28;20450;-45
2022/05/24 03:05:50;;;;;;;1.10;1.00;;;16.90;99.90;;;;;;5038838;28;20179;-45
2022/05/24 03:10:59;;;;;;;1.00;0.70;;;16.90;99.90;;;;;;5038021;28;20480;-45
2022/05/24 03:16:11;;;;;;;1.10;0.80;;;16.90;99.80;;;;;;5037614;28;20199;-45
2022/05/24 03:18:37;;;;;;;1.67;0.90;;;16.80;99.90;;;;;;5038335;28;20477;-45
2022/05/24 03:21:03;;;;;;;1.43;1.03;;;16.80;99.90;;;;;;5036357;28;20457;-45
2022/05/24 03:23:28;;;;;;;1.20;0.90;;;16.90;99.90;;;;;;5037910;28;20176;-45
2022/05/24 03:25:54;;;;;;;1.30;0.70;;;16.90;99.90;;;;;;5037411;28;20724;-45
2022/05/24 03:28:20;;;;;;;2.23;0.77;;;17.00;99.90;;;;;;5037041;28;20215;-45
2022/05/24 03:30:46;;;;;;;1.00;0.80;;;17.00;99.80;;;;;;5037389;28;20190;-46
2022/05/24 03:33:13;;;;;;;1.30;0.60;;;17.10;99.90;;;;;;5037897;28;20699;-45
2022/05/24 03:35:39;;;;;;;1.23;1.13;;;17.10;99.60;;;;;;5057413;28;20484;-45
2022/05/24 03:38:05;;;;;;;2.17;1.10;;;17.20;99.60;;;;;;5084700;28;20450;-45
2022/05/24 03:40:31;;;;;;;2.70;0.60;;;17.20;99.50;;;;;;5098472;28;20441;-46
2022/05/24 03:42:57;;;;;;;1.77;0.87;;;17.20;99.40;;;;;;5097754;28;20413;-45
2022/05/24 03:45:23;;;;;;;1.00;0.80;;;17.30;99.30;;;;;;5097447;28;20686;-45
2022/05/24 03:47:49;;;;;;;1.20;0.80;;;17.30;99.20;;;;;;5096716;28;20205;-45
2022/05/24 03:50:16;;;;;;;1.33;0.70;;;17.30;99.10;;;;;;5096048;28;20430;-45
2022/05/24 03:52:42;;;;;;;1.93;0.77;;;17.30;99.10;;;;;;5096951;28;20415;-45
2022/05/24 03:55:08;;;;;;;2.10;0.87;;;17.30;98.90;;;;;;5095319;28;20428;-45
2022/05/24 04:00:20;;;;;;;2.30;0.97;;;17.40;99.00;;;;;;5094820;28;20716;-45
2022/05/24 04:02:46;;;;;;;1.40;0.90;;;17.40;98.80;;;;;;5096641;28;20418;-45
2022/05/24 04:05:12;;;;;;;2.60;1.30;;;17.40;98.80;;;;;;5096143;28;20529;-45
2022/05/24 04:07:38;;;;;;;1.60;1.10;;;17.40;98.70;;;;;;5095923;28;20201;-45
2022/05/24 04:10:05;;;;;;;1.27;1.00;;;17.30;99.00;;;;;;5095689;28;20298;-45
2022/05/24 04:12:31;;;;;;;1.60;1.20;;;17.30;99.00;;;;;;5078692;28;20507;-45
2022/05/24 04:14:57;;;;;;;2.33;1.30;;;17.30;98.80;;;;;;5096484;28;20434;-45
2022/05/24 04:17:22;;;;;;;1.53;1.20;;;17.30;98.80;;;;;;5077953;28;20470;-45
2022/05/24 04:19:48;;;;;;;2.20;1.30;;;17.30;98.30;;;;;;5096273;28;20447;-45
2022/05/24 04:22:14;;;;;;;1.40;1.27;;;17.30;98.30;;;;;;5067470;28;20183;-45
2022/05/24 04:24:39;;;;;;;1.60;1.27;;;17.30;98.50;;;;;;5055916;28;20182;-45
2022/05/24 04:27:06;;;;;;;2.20;1.27;;;17.40;98.40;;;;;;5073959;28;20196;-45
2022/05/24 04:29:33;;;;;;;1.90;1.20;;;17.40;98.50;;;;;;5073892;28;20170;-45
2022/05/24 04:31:59;;;;;;;2.47;1.70;;;17.50;98.00;;;;;;5077492;28;20425;-45
2022/05/24 04:34:25;;;;;;;2.40;1.77;;;17.40;97.90;;;;;;5062272;28;20473;-45
2022/05/24 04:36:50;;;;;;;3.00;1.93;;;17.30;97.90;;;;;;5078517;28;20545;-45
2022/05/24 04:39:17;;;;;;;2.40;1.30;;;17.30;98.00;;;;;;5060250;28;20184;-45
2022/05/24 04:44:26;;;;;;;1.90;1.50;;;17.20;98.30;;;;;;5077183;28;20530;-45
2022/05/24 04:47:07;;;;;;;1.90;1.67;;;17.20;97.80;;;;;;5076400;28;20566;-45
2022/05/24 04:49:37;;;;;;;1.80;1.50;;;17.30;98.10;;;;;;5075924;28;20261;-45
2022/05/24 04:52:04;;;;;;;2.10;1.90;;;17.30;97.70;;;;;;5058827;28;20474;-45
2022/05/24 04:54:29;;;;;;;1.90;1.70;;;17.40;97.50;;;;;;5059849;28;20720;-45
2022/05/24 04:56:55;;;;;;;2.10;1.90;;;17.30;97.50;;;;;;5078638;28;20523;-45
2022/05/24 04:59:21;;;;;;;2.50;1.80;;;17.40;97.30;;;;;;5078691;28;20227;-45
2022/05/24 05:01:46;;;;;;;2.73;1.67;;;17.40;97.20;;;;;;5068388;28;20581;-45
2022/05/24 05:04:12;;;;;;;1.83;1.50;;;17.60;97.20;;;;;;5059241;28;20186;-45
2022/05/24 05:06:42;;;;;;;1.80;1.40;;;17.70;96.90;;;;;;5041283;28;20499;-45
2022/05/24 05:09:09;;;;;;;2.63;1.83;;;17.80;96.70;;;;;;5058494;28;20167;-46
2022/05/24 05:11:35;;;;;;;2.23;1.60;;;17.80;96.60;;;;;;5038129;28;20921;-45
2022/05/24 05:14:01;;;;;;;2.00;1.67;;;17.80;96.50;;;;;;5057604;28;20507;-45
2022/05/24 05:16:26;;;;;;;2.07;1.50;;;17.70;96.60;;;;;;5056522;28;20201;-45
2022/05/24 05:18:52;;;;;;;3.17;1.70;;;17.70;96.70;;;;;;5039309;28;20176;-45
2022/05/24 05:21:17;;;;;;;2.40;1.70;;;17.70;96.50;;;;;;5057621;28;20604;-45
2022/05/24 05:23:43;;;;;;;1.97;1.77;;;17.70;96.60;;;;;;5058485;28;20202;-45
2022/05/24 05:26:09;;;;;;;3.40;1.50;;;17.80;96.40;;;;;;5039248;28;20238;-45
2022/05/24 05:28:34;;;;;;;2.37;1.70;;;17.80;96.40;;;;;;5056122;28;20270;-45
2022/05/24 05:31:22;;;;;;;2.50;1.70;;;18.10;96.40;;;;;;5057209;28;20182;-45
2022/05/24 05:33:49;;;;;;;2.97;1.63;;;18.40;95.60;;;;;;5061145;28;20618;-45
2022/05/24 05:36:16;;;;;;;3.00;2.00;;;18.70;94.70;;;;;;5075248;28;20434;-45
2022/05/24 05:38:45;;;;;;;2.70;1.80;;;18.80;94.70;;;;;;5073959;28;20477;-45
2022/05/24 05:41:13;;;;;;;1.77;1.20;;;18.90;94.50;;;;;;5072760;28;20529;-45
2022/05/24 05:43:38;;;;;;;1.80;1.57;;;19.10;93.90;;;;;;5072142;28;20419;-46
2022/05/24 05:46:04;;;;;;;2.23;1.43;;;19.20;93.60;;;;;;5074345;28;20671;-45
2022/05/24 05:48:30;;;;;;;2.07;1.87;;;19.20;93.00;;;;;;5073397;28;20639;-45
2022/05/24 05:50:55;;;;;;;2.30;1.70;;;19.30;92.90;;;;;;5075822;28;20577;-45
2022/05/24 05:53:21;;;;;;;2.23;1.33;;;19.30;92.80;;;;;;5075411;28;20244;-46
2022/05/24 05:55:47;;;;;;;2.40;1.50;;;19.40;93.00;;;;;;5075232;28;20188;-45
2022/05/24 05:58:13;;;;;;;2.03;1.50;;;19.40;92.90;;;;;;5075067;28;20481;-45
2022/05/24 06:00:40;;;;;;;2.27;1.40;;;19.50;92.50;;;;;;5072737;28;20177;-45
2022/05/24 06:03:06;;;;;;;3.40;2.07;;;19.40;92.60;;;;;;5074875;28;20656;-45
2022/05/24 06:05:32;;;;;;;2.20;1.50;;;19.50;92.50;;;;;;5074280;28;20434;-45
2022/05/24 06:07:58;;;;;;;4.40;1.50;;;19.40;92.50;;;;;;5075297;28;20461;-45
2022/05/24 06:10:25;;;;;;;2.90;1.57;;;19.50;92.20;;;;;;5076488;28;20420;-45
2022/05/24 06:12:53;;;;;;;2.70;1.63;;;19.60;91.90;;;;;;5076458;28;20412;-45
2022/05/24 06:15:20;;;;;;;2.57;1.40;;;19.70;91.80;;;;;;5058249;28;20436;-45
2022/05/24 06:17:48;;;;;;;3.20;1.93;;;19.80;91.20;;;;;;5058947;28;20510;-45
2022/05/24 06:20:19;;;;;;;5.07;1.70;;;19.90;91.20;;;;;;5057619;28;20444;-45
2022/05/24 06:22:46;;;;;;;5.20;1.90;;;19.90;91.20;;;;;;5060282;28;20424;-45
2022/05/24 06:25:12;;;;;;;1.87;1.30;;;19.90;90.80;;;;;;5077205;28;20423;-45
2022/05/24 06:27:38;;;;;;;1.80;1.50;;;20.00;90.20;;;;;;5077514;28;20463;-45
2022/05/24 06:30:04;;;;;;;3.30;1.93;;;20.20;90.20;;;;;;5074383;28;20823;-45
2022/05/24 06:32:30;;;;;;;2.10;1.47;;;20.10;89.40;;;;;;5074500;28;20179;-45
2022/05/24 06:34:56;;;;;;;1.70;1.20;;;20.20;90.00;;;;;;5075903;28;20543;-45
2022/05/24 06:37:22;;;;;;;2.40;1.43;;;20.20;90.00;;;;;;5076152;28;20187;-45
2022/05/24 06:39:48;;;;;;;2.80;1.50;;;20.20;89.50;;;;;;5076056;28;20410;-45
2022/05/24 06:42:14;;;;;;;3.90;2.03;;;20.30;88.60;;;;;;5058837;28;20430;-45
2022/05/24 06:44:40;;;;;;;5.70;1.77;;;20.30;88.90;;;;;;5075023;28;20472;-45
2022/05/24 06:47:05;;;;;;;2.50;1.60;;;20.40;88.50;;;;;;5074691;28;20314;-45
2022/05/24 06:49:31;;;;;;;1.90;1.43;;;20.50;88.10;;;;;;5075352;28;20183;-45
2022/05/24 06:51:57;;;;;;;3.27;1.50;;;20.50;87.60;;;;;;5058156;28;20683;-45
2022/05/24 06:54:23;;;;;;;2.70;1.73;;;20.50;87.50;;;;;;5074524;28;20526;-45
2022/05/24 06:56:49;;;;;;;4.10;1.90;;;20.30;87.30;;;;;;5075269;28;20808;-45
2022/05/24 07:04:43;;;;;;;4.70;1.17;;;19.50;89.20;;;;;;5076173;28;20422;-45
2022/05/24 07:07:09;;;;;;;1.90;1.50;;;19.30;90.30;;;;;;5076245;28;20496;-45
2022/05/24 07:09:34;;;;;;;2.23;0.90;;;19.20;90.40;;;;;;5076685;28;20450;-47
2022/05/24 07:12:01;;;;;;;2.03;1.00;;;18.80;88.10;;;;;;5076805;28;20665;-44
2022/05/24 07:14:27;;;;;;;2.93;0.90;;;18.20;88.70;;;;;;5075922;28;20264;-44
2022/05/24 07:16:52;;;;;;;4.20;1.43;;;17.80;90.70;;;;;;5073892;28;20519;-46
2022/05/24 07:19:19;;;;;;;2.53;1.13;;;17.60;91.60;;;;;;5074712;28;20218;-43
2022/05/24 07:21:45;;;;;;;1.43;0.70;;;17.40;92.60;;;;;;5056854;28;20251;-46
2022/05/24 07:24:11;;;;;;;3.10;0.93;;;17.30;92.60;;;;;;5074936;28;20424;-43
2022/05/24 07:26:36;;;;;;;2.13;1.00;;;17.30;92.90;;;;;;5074031;28;20220;-43
2022/05/24 07:29:04;;;;;;;2.50;0.67;;;17.40;93.00;;;;;;5073770;28;20422;-46
2022/05/24 07:31:30;;;;;;;1.73;0.70;;;17.50;92.40;;;;;;5074370;28;20227;-43
2022/05/24 07:33:59;;;;;;;2.00;0.67;;;17.60;92.20;;;;;;5075412;28;20460;-44
2022/05/24 07:36:26;;;;;;;2.23;0.60;;;17.70;92.50;;;;;;5076438;28;20451;-43
2022/05/24 07:38:52;;;;;;;1.27;0.77;;;17.70;92.40;;;;;;5058846;28;20410;-44
2022/05/24 07:46:45;;;;;;;1.73;0.90;;;17.80;91.90;;;;;;5075557;28;20628;-44
2022/05/24 07:49:11;;;;;;;1.90;0.67;;;17.90;91.70;;;;;;5073823;28;20515;-42
2022/05/24 07:51:37;;;;;;;3.93;0.60;;;18.10;91.70;;;;;;5075580;28;20174;-44
2022/05/24 07:54:03;;;;;;;1.40;0.67;;;18.10;90.90;;;;;;5058383;28;20185;-45
2022/05/24 07:56:28;;;;;;;1.83;0.50;;;18.20;90.90;;;;;;5075450;28;20436;-45
2022/05/24 07:58:54;;;;;;;2.73;0.93;;;18.50;90.40;;;;;;5074929;28;20253;-44
2022/05/24 08:01:20;;;;;;;1.00;0.50;;;18.80;90.20;;;;;;5075535;28;20182;-44
2022/05/24 08:03:46;;;;;;;2.03;0.60;;;19.30;90.20;;;;;;5075682;28;20239;-43
2022/05/24 08:06:12;;;;;;;1.70;0.70;;;19.70;89.50;;;;;;5057387;28;20433;-45
2022/05/24 08:08:38;;;;;;;1.43;0.53;;;20.00;87.50;;;;;;5075489;28;20207;-43
2022/05/24 08:11:05;;;;;;;1.30;0.43;;;20.30;85.80;;;;;;5074245;28;20185;-46
2022/05/24 08:13:31;;;;;;;3.03;0.80;;;20.50;84.60;;;;;;5076064;28;20415;-44
2022/05/24 08:15:56;;;;;;;3.80;0.80;;;20.70;84.70;;;;;;5057867;28;20437;-43
2022/05/24 08:18:23;;;;;;;1.40;0.70;;;20.90;83.40;;;;;;5075172;28;20691;-45
2022/05/24 08:20:49;;;;;;;1.93;0.80;;;21.00;82.30;;;;;;5075084;28;20526;-45
2022/05/24 08:23:17;;;;;;;1.03;0.70;;;21.20;82.30;;;;;;5075077;28;20417;-46
2022/05/24 08:25:44;;;;;;;1.63;0.70;;;21.30;81.70;;;;;;5073967;28;20560;-46
2022/05/24 08:28:09;;;;;;;1.63;0.60;;;21.50;80.10;;;;;;5074053;28;20566;-44
2022/05/24 08:30:37;;;;;;;1.50;0.50;;;21.60;77.80;;;;;;5074958;28;20428;-44
2022/05/24 08:33:04;;;;;;;1.07;0.53;;;21.60;75.90;;;;;;5057056;28;20181;-45
2022/05/24 08:35:32;;;;;;;1.03;0.50;;;21.70;77.70;;;;;;5092482;28;20473;-44
2022/05/24 08:37:58;;;;;;;0.83;0.50;;;21.80;77.60;;;;;;5058629;28;20422;-45
2022/05/24 08:40:24;;;;;;;0.93;0.57;;;22.00;76.90;;;;;;5095194;28;20423;-46
2022/05/24 08:43:07;;;;;;;1.70;0.50;;;22.20;75.40;;;;;;5095619;28;20423;-45
2022/05/24 08:48:38;;;;;;;1.20;0.43;;;21.90;73.90;;;;;;5095489;28;20503;-46
2022/05/24 08:51:25;;;;;;;1.93;0.90;;;21.70;72.30;;;;;;5095474;28;20464;-44
2022/05/24 08:53:54;;;;;;;2.07;0.60;;;21.60;72.70;;;;;;5077033;28;20420;-46
2022/05/24 08:56:25;;;;;;;1.10;0.47;;;21.70;73.20;;;;;;5076780;28;20437;-44
2022/05/24 08:59:00;;;;;;;3.17;0.60;;;22.00;73.10;;;;;;5078254;28;20670;-47
2022/05/24 09:01:32;;;;;;;1.40;0.80;;;22.30;71.50;;;;;;5060520;28;20432;-48
2022/05/24 09:03:59;;;;;;;1.37;0.60;;;22.60;70.30;;;;;;5077032;28;20990;-46
2022/05/24 09:06:38;;;;;;;0.90;0.50;;;22.80;68.50;;;;;;5095428;28;20428;-45
2022/05/24 09:09:22;;;;;;;1.30;0.60;;;23.00;66.80;;;;;;5093912;28;20408;-46
2022/05/24 09:11:58;;;;;;;1.50;0.70;;;23.30;66.50;;;;;;5094639;28;20432;-46
2022/05/24 09:15:01;;;;;;;1.40;0.90;;;23.80;64.80;;;;;;5073880;28;20411;-46
2022/05/24 09:17:56;;;;;;;4.27;0.70;;;24.50;62.70;;;;;;5057635;28;20862;-45
2022/05/24 09:20:25;;;;;;;1.70;0.60;;;24.70;59.40;;;;;;5067174;28;20453;-47
2022/05/24 09:22:53;;;;;;;1.30;0.77;;;25.00;58.70;;;;;;5060899;28;20419;-44
2022/05/24 09:25:19;;;;;;;0.90;0.60;;;25.50;57.90;;;;;;5039696;28;20460;-45
2022/05/24 09:27:53;;;;;;;1.47;0.70;;;26.50;56.50;;;;;;5056440;28;20459;-46
2022/05/24 09:30:50;;;;;;;1.40;0.50;;;27.50;53.80;;;;;;5059838;28;20624;-45
2022/05/24 09:33:19;;;;;;;1.33;0.53;;;27.40;52.00;;;;;;5059396;28;20506;-46
2022/05/24 09:35:45;;;;;;;3.53;0.60;;;27.80;51.20;;;;;;5057113;28;20425;-46
2022/05/24 09:38:16;;;;;;;2.13;0.70;;;27.70;48.30;;;;;;5057444;28;20415;-46
2022/05/24 09:40:48;;;;;;;1.03;0.60;;;27.40;48.60;;;;;;5057039;28;20201;-46
2022/05/24 09:43:23;;;;;;;1.10;0.60;;;26.90;48.20;;;;;;5058008;28;20430;-48
2022/05/24 09:45:53;;;;;;;2.17;0.63;;;26.20;48.70;;;;;;5058872;28;20581;-47
2022/05/24 09:48:30;;;;;;;1.20;0.70;;;26.20;50.00;;;;;;5040305;28;20458;-45
2022/05/24 09:50:57;;;;;;;1.97;0.70;;;27.60;49.30;;;;;;5058536;28;20527;-44
2022/05/24 09:53:30;;;;;;;1.00;0.50;;;28.90;47.10;;;;;;5039403;28;20417;-46
2022/05/24 09:56:05;;;;;;;1.50;0.80;;;29.20;44.10;;;;;;5040352;28;20822;-46
2022/05/24 09:58:50;;;;;;;1.30;0.80;;;30.10;43.00;;;;;;5040581;28;20434;-46
2022/05/24 10:01:49;;;;;;;1.20;0.60;;;30.40;41.30;;;;;;5057609;28;20810;-45
2022/05/24 10:04:33;;;;;;;1.90;0.60;;;30.70;39.50;;;;;;5057472;28;20428;-47
2022/05/24 10:07:04;;;;;;;10.20;0.90;;;31.30;38.50;;;;;;5058209;28;20483;-45
2022/05/24 10:09:52;;;;;;;1.10;0.57;;;30.10;39.50;;;;;;5056805;28;20700;-46
2022/05/24 10:12:35;;;;;;;1.37;0.70;;;29.40;40.00;;;;;;5056786;28;20417;-46
2022/05/24 10:15:21;;;;;;;2.03;0.57;;;29.90;39.10;;;;;;5054974;28;20431;-46
2022/05/24 10:18:01;;;;;;;1.13;0.60;;;29.60;39.50;;;;;;5020541;28;20696;-46
2022/05/24 10:20:49;;;;;;;1.40;0.50;;;28.60;39.70;;;;;;5056956;28;20863;-44
2022/05/24 10:23:45;;;;;;;1.93;0.70;;;28.60;39.70;;;;;;5056614;28;20383;-45
2022/05/24 10:26:42;;;;;;;1.40;0.60;;;28.40;39.60;;;;;;5056467;28;20598;-47
2022/05/24 10:29:26;;;;;;;1.10;0.57;;;29.30;39.50;;;;;;5036652;28;20880;-46
2022/05/24 10:31:57;;;;;;;0.90;0.53;;;30.70;38.80;;;;;;5056575;28;20448;-49
2022/05/24 10:40:22;;;;;;;1.20;0.80;;;29.70;37.90;;;;;;5036285;28;20429;-48
2022/05/24 10:43:29;;;;;;;1.30;0.60;;;28.70;38.90;;;;;;5035259;28;20498;-46
2022/05/24 10:46:04;;;;;;;1.00;0.60;;;28.40;39.40;;;;;;4973658;28;20469;-47
2022/05/24 10:48:36;;;;;;;1.97;0.83;;;28.10;40.10;;;;;;5017003;28;20528;-46
2022/05/24 10:51:13;;;;;;;2.20;0.60;;;27.60;40.20;;;;;;5017305;28;20407;-46
2022/05/24 10:53:53;;;;;;;2.30;1.27;;;27.80;40.60;;;;;;5018549;28;20439;-47
2022/05/24 10:56:25;;;;;;;1.20;0.73;;;27.80;40.70;;;;;;5034648;28;20438;-46
2022/05/24 10:58:52;;;;;;;1.50;0.70;;;27.80;40.50;;;;;;5035331;28;20443;-47
2022/05/24 11:01:32;;;;;;;1.57;0.50;;;27.60;40.80;;;;;;5054642;28;20461;-46
2022/05/24 11:04:04;;;;;;;2.43;0.80;;;28.10;41.30;;;;;;5037543;28;20410;-46
2022/05/24 11:06:39;;;;;;;2.03;0.70;;;28.40;39.60;;;;;;5053587;28;20453;-46
2022/05/24 11:09:10;;;;;;;1.20;0.70;;;28.50;39.60;;;;;;5054029;28;20419;-47
2022/05/24 11:11:55;;;;;;;0.97;0.60;;;28.80;39.10;;;;;;5055172;28;20424;-49
2022/05/24 11:14:27;;;;;;;1.73;0.70;;;28.70;39.40;;;;;;5054028;28;20499;-47
2022/05/24 11:16:53;;;;;;;1.50;0.70;;;28.30;38.80;;;;;;5052288;28;20438;-45
2022/05/24 11:19:25;;;;;;;1.27;0.70;;;27.80;38.90;;;;;;5051172;28;20413;-46
2022/05/24 11:22:00;;;;;;;1.40;0.63;;;27.70;38.60;;;;;;5051084;28;20702;-47
2022/05/24 11:24:36;;;;;;;3.80;1.10;;;27.70;38.90;;;;;;5046319;28;20409;-47
2022/05/24 11:27:05;;;;;;;1.50;0.70;;;27.90;38.90;;;;;;5034754;28;20529;-47
2022/05/24 11:29:44;;;;;;;2.67;1.00;;;27.60;39.40;;;;;;5034480;28;20796;-46
2022/05/24 11:32:11;;;;;;;4.03;1.20;;;27.10;39.30;;;;;;5033763;28;20421;-46
2022/05/24 11:34:54;;;;;;;2.97;0.87;;;26.60;39.50;;;;;;5045091;28;20679;-47
2022/05/24 11:37:35;;;;;;;1.57;0.80;;;26.50;40.00;;;;;;5054236;28;20841;-47
2022/05/24 11:40:32;;;;;;;1.63;0.90;;;26.70;40.10;;;;;;5056588;28;20499;-45
2022/05/24 11:43:03;;;;;;;2.10;0.70;;;27.20;40.00;;;;;;5053398;28;20392;-46
2022/05/24 11:45:29;;;;;;;3.20;0.67;;;28.10;39.50;;;;;;5055157;28;20432;-47
2022/05/24 11:47:56;;;;;;;2.07;0.90;;;28.50;39.00;;;;;;5055233;28;20478;-47
2022/05/24 11:50:30;;;;;;;1.07;0.60;;;29.10;38.70;;;;;;5054578;28;20202;-47
2022/05/24 11:53:29;;;;;;;1.50;1.00;;;29.00;37.90;;;;;;5053609;28;20393;-46
2022/05/24 11:55:54;;;;;;;1.30;0.70;;;28.60;38.40;;;;;;5054169;28;20730;-46
2022/05/24 11:58:20;;;;;;;3.63;0.70;;;27.60;40.10;;;;;;5053593;28;20408;-48
2022/05/24 12:00:59;;;;;;;1.77;0.90;;;26.50;42.10;;;;;;5052382;28;20183;-46
2022/05/24 12:09:17;;;;;;;3.27;1.10;;;24.40;44.70;;;;;;5053369;28;20411;-46
2022/05/24 12:11:44;;;;;;;1.47;0.80;;;24.10;45.20;;;;;;5051798;28;20414;-46
2022/05/24 12:14:33;;;;;;;1.20;0.73;;;24.00;45.10;;;;;;5036742;28;20408;-48
2022/05/24 12:17:02;;;;;;;2.43;1.00;;;24.00;44.70;;;;;;5035848;28;20422;-46
2022/05/24 12:19:49;;;;;;;1.40;0.80;;;24.30;44.80;;;;;;5053145;28;20409;-46
2022/05/24 12:22:26;;;;;;;2.90;0.90;;;25.20;43.70;;;;;;5035485;28;20433;-47
2022/05/24 12:24:57;;;;;;;2.67;0.87;;;26.30;43.10;;;;;;5053570;28;20407;-48
2022/05/24 12:27:50;;;;;;;1.77;0.77;;;27.50;42.20;;;;;;5051572;28;20457;-49
2022/05/24 12:30:35;;;;;;;2.00;1.00;;;28.40;39.80;;;;;;5037129;28;20431;-46
2022/05/24 12:33:23;;;;;;;1.20;0.80;;;29.30;38.20;;;;;;5036876;28;20435;-47
2022/05/24 12:36:05;;;;;;;1.07;0.70;;;29.40;37.40;;;;;;5054305;28;20534;-47
2022/05/24 12:38:31;;;;;;;1.80;1.27;;;29.40;37.90;;;;;;5054244;28;20407;-48
2022/05/24 12:41:27;;;;;;;1.80;1.00;;;29.60;38.10;;;;;;5020761;28;20442;-47
2022/05/24 12:44:01;;;;;;;3.50;0.93;;;30.00;36.50;;;;;;5053728;28;20723;-47
2022/05/24 12:46:33;;;;;;;1.83;0.90;;;30.40;36.20;;;;;;5054621;28;20404;-49
2022/05/24 12:49:03;;;;;;;1.53;0.80;;;30.00;34.70;;;;;;5055487;28;20412;-47
2022/05/24 12:51:28;;;;;;;2.27;0.70;;;30.20;35.60;;;;;;5036451;28;20438;-48
2022/05/24 12:53:54;;;;;;;1.63;0.80;;;30.50;35.40;;;;;;5056355;28;20451;-47
2022/05/24 12:56:23;;;;;;;1.10;0.70;;;30.80;35.70;;;;;;5041513;28;20182;-47
2022/05/24 12:58:51;;;;;;;1.30;0.60;;;31.10;34.10;;;;;;5057426;28;20188;-49
2022/05/24 13:01:16;;;;;;;1.93;0.80;;;31.40;33.50;;;;;;5058823;28;20407;-47
2022/05/24 13:03:47;;;;;;;1.40;0.60;;;31.80;33.30;;;;;;5058667;28;20416;-48
2022/05/24 13:06:21;;;;;;;1.43;0.67;;;31.90;33.20;;;;;;5058043;28;20200;-47
2022/05/24 13:08:47;;;;;;;1.37;0.70;;;32.10;33.30;;;;;;5057935;28;20471;-47
2022/05/24 13:11:13;;;;;;;1.97;0.80;;;32.10;32.50;;;;;;5056655;28;20475;-49
2022/05/24 13:13:40;;;;;;;1.93;0.90;;;31.70;32.80;;;;;;5058706;28;20418;-47
2022/05/24 13:16:06;;;;;;;1.70;0.90;;;31.50;32.40;;;;;;5041789;28;20537;-48
2022/05/24 13:18:33;;;;;;;1.17;0.60;;;31.10;33.00;;;;;;5059301;28;20447;-48
2022/05/24 13:21:10;;;;;;;2.13;0.80;;;30.60;33.30;;;;;;5041847;28;20190;-48
2022/05/24 13:23:41;;;;;;;1.10;0.60;;;30.60;32.90;;;;;;5041100;28;20408;-47
2022/05/24 13:26:08;;;;;;;1.60;1.00;;;30.90;32.80;;;;;;5057813;28;20446;-49
2022/05/24 13:28:51;;;;;;;1.27;0.60;;;30.70;32.50;;;;;;5058110;28;20431;-48
2022/05/24 13:34:24;;;;;;;1.53;0.73;;;29.70;33.00;;;;;;5038730;28;20946;-49
2022/05/24 13:36:58;;;;;;;1.80;1.00;;;29.10;34.10;;;;;;5039898;28;20490;-48
2022/05/24 13:39:26;;;;;;;1.10;0.67;;;28.90;34.30;;;;;;5037693;28;20411;-46
2022/05/24 13:41:58;;;;;;;1.57;0.70;;;29.10;34.50;;;;;;5038085;28;20683;-49
2022/05/24 13:44:52;;;;;;;1.63;0.80;;;29.10;33.80;;;;;;5056520;28;20388;-47
2022/05/24 13:47:26;;;;;;;2.80;1.03;;;29.00;34.20;;;;;;5009966;28;20453;-46
2022/05/24 13:49:54;;;;;;;1.37;0.60;;;28.40;33.90;;;;;;5055867;28;20426;-48
2022/05/24 13:52:38;;;;;;;1.13;0.70;;;28.10;35.30;;;;;;5035482;28;20418;-46
2022/05/24 13:55:22;;;;;;;1.33;0.60;;;28.00;36.00;;;;;;5048518;28;20462;-51